sensor_id;sensor_type;location;lat;lon;timestamp;temperature;humidity
74359;DHT22;62792;46.236;6.040;2023-06-22T00:01:19;28.50;61.80
74359;DHT22;62792;46.236;6.040;2023-06-22T00:06:25;28.40;61.70
74359;DHT22;62792;46.236;6.040;2023-06-22T00:11:28;28.40;61.70
74359;DHT22;62792;46.236;6.040;2023-06-22T00:16:33;28.40;61.60
74359;DHT22;62792;46.236;6.040;2023-06-22T00:21:37;28.40;61.70
74359;DHT22;62792;46.236;6.040;2023-06-22T00:26:40;28.40;61.80
74359;DHT22;62792;46.236;6.040;2023-06-22T00:31:44;28.50;61.70
74359;DHT22;62792;46.236;6.040;2023-06-22T00:36:49;28.30;61.40
74359;DHT22;62792;46.236;6.040;2023-06-22T00:41:53;28.40;61.50
74359;DHT22;62792;46.236;6.040;2023-06-22T00:46:57;28.40;61.40
74359;DHT22;62792;46.236;6.040;2023-06-22T00:52:03;28.40;61.30
74359;DHT22;62792;46.236;6.040;2023-06-22T00:57:10;28.30;61.20
74359;DHT22;62792;46.236;6.040;2023-06-22T01:02:14;28.30;61.20
74359;DHT22;62792;46.236;6.040;2023-06-22T01:07:22;28.40;61.10
74359;DHT22;62792;46.236;6.040;2023-06-22T01:12:30;28.30;61.00
74359;DHT22;62792;46.236;6.040;2023-06-22T01:17:37;28.30;60.80
74359;DHT22;62792;46.236;6.040;2023-06-22T01:22:46;28.30;61.10
74359;DHT22;62792;46.236;6.040;2023-06-22T01:27:58;28.20;61.00
74359;DHT22;62792;46.236;6.040;2023-06-22T01:33:09;28.30;60.90
74359;DHT22;62792;46.236;6.040;2023-06-22T01:38:13;28.20;60.80
74359;DHT22;62792;46.236;6.040;2023-06-22T01:43:16;28.30;60.90
74359;DHT22;62792;46.236;6.040;2023-06-22T01:48:21;28.20;60.90
74359;DHT22;62792;46.236;6.040;2023-06-22T01:53:24;28.30;60.70
74359;DHT22;62792;46.236;6.040;2023-06-22T01:58:28;28.20;60.20
74359;DHT22;62792;46.236;6.040;2023-06-22T02:03:34;28.30;60.60
74359;DHT22;62792;46.236;6.040;2023-06-22T02:08:40;28.20;60.60
74359;DHT22;62792;46.236;6.040;2023-06-22T02:13:44;28.20;60.50
74359;DHT22;62792;46.236;6.040;2023-06-22T02:18:49;28.20;60.60
74359;DHT22;62792;46.236;6.040;2023-06-22T02:23:53;28.30;60.70
74359;DHT22;62792;46.236;6.040;2023-06-22T02:28:56;28.20;60.30
74359;DHT22;62792;46.236;6.040;2023-06-22T02:34:01;28.20;60.20
74359;DHT22;62792;46.236;6.040;2023-06-22T02:39:04;28.10;60.30
74359;DHT22;62792;46.236;6.040;2023-06-22T02:44:08;28.20;60.40
74359;DHT22;62792;46.236;6.040;2023-06-22T02:49:13;28.10;60.10
74359;DHT22;62792;46.236;6.040;2023-06-22T02:54:17;28.10;60.10
74359;DHT22;62792;46.236;6.040;2023-06-22T02:59:22;28.10;60.20
74359;DHT22;62792;46.236;6.040;2023-06-22T03:04:27;28.10;60.00
74359;DHT22;62792;46.236;6.040;2023-06-22T03:09:30;28.10;60.10
74359;DHT22;62792;46.236;6.040;2023-06-22T03:14:33;28.10;59.70
74359;DHT22;62792;46.236;6.040;2023-06-22T03:19:37;28.10;60.00
74359;DHT22;62792;46.236;6.040;2023-06-22T03:24:40;28.00;59.60
74359;DHT22;62792;46.236;6.040;2023-06-22T03:29:43;28.10;60.00
74359;DHT22;62792;46.236;6.040;2023-06-22T03:34:49;28.00;60.10
74359;DHT22;62792;46.236;6.040;2023-06-22T03:39:52;28.00;59.80
74359;DHT22;62792;46.236;6.040;2023-06-22T03:44:55;28.00;59.70
74359;DHT22;62792;46.236;6.040;2023-06-22T03:50:00;27.90;59.80
74359;DHT22;62792;46.236;6.040;2023-06-22T03:55:06;28.00;59.50
74359;DHT22;62792;46.236;6.040;2023-06-22T04:00:11;28.00;59.60
74359;DHT22;62792;46.236;6.040;2023-06-22T04:05:16;28.00;59.80
74359;DHT22;62792;46.236;6.040;2023-06-22T04:10:20;28.00;59.70
74359;DHT22;62792;46.236;6.040;2023-06-22T04:15:23;28.00;59.30
74359;DHT22;62792;46.236;6.040;2023-06-22T04:20:28;28.00;59.50
74359;DHT22;62792;46.236;6.040;2023-06-22T04:25:31;28.00;59.30
74359;DHT22;62792;46.236;6.040;2023-06-22T04:30:34;27.90;59.20
74359;DHT22;62792;46.236;6.040;2023-06-22T04:35:38;27.90;59.40
74359;DHT22;62792;46.236;6.040;2023-06-22T04:40:42;27.90;59.30
74359;DHT22;62792;46.236;6.040;2023-06-22T04:45:45;27.90;59.20
74359;DHT22;62792;46.236;6.040;2023-06-22T04:50:56;27.80;59.30
74359;DHT22;62792;46.236;6.040;2023-06-22T04:56:05;27.90;59.40
74359;DHT22;62792;46.236;6.040;2023-06-22T05:01:10;27.90;59.50
74359;DHT22;62792;46.236;6.040;2023-06-22T05:06:14;27.80;59.70
74359;DHT22;62792;46.236;6.040;2023-06-22T05:11:19;27.80;59.60
74359;DHT22;62792;46.236;6.040;2023-06-22T05:16:22;27.90;59.70
74359;DHT22;62792;46.236;6.040;2023-06-22T05:21:27;27.80;59.40
74359;DHT22;62792;46.236;6.040;2023-06-22T05:26:30;27.50;61.70
74359;DHT22;62792;46.236;6.040;2023-06-22T05:31:34;27.30;63.90
74359;DHT22;62792;46.236;6.040;2023-06-22T05:36:38;27.40;63.00
74359;DHT22;62792;46.236;6.040;2023-06-22T05:41:42;27.70;62.50
74359;DHT22;62792;46.236;6.040;2023-06-22T05:46:45;27.70;62.10
74359;DHT22;62792;46.236;6.040;2023-06-22T05:51:51;27.80;61.90
74359;DHT22;62792;46.236;6.040;2023-06-22T05:56:54;27.80;61.80
74359;DHT22;62792;46.236;6.040;2023-06-22T06:01:57;27.80;61.80
74359;DHT22;62792;46.236;6.040;2023-06-22T06:07:01;27.80;61.30
74359;DHT22;62792;46.236;6.040;2023-06-22T06:12:05;27.90;61.50
74359;DHT22;62792;46.236;6.040;2023-06-22T06:17:08;27.90;61.20
74359;DHT22;62792;46.236;6.040;2023-06-22T06:22:12;27.80;61.30
74359;DHT22;62792;46.236;6.040;2023-06-22T06:27:15;27.80;61.00
74359;DHT22;62792;46.236;6.040;2023-06-22T06:32:19;27.90;61.30
74359;DHT22;62792;46.236;6.040;2023-06-22T06:37:24;27.80;61.00
74359;DHT22;62792;46.236;6.040;2023-06-22T06:42:26;27.90;61.00
74359;DHT22;62792;46.236;6.040;2023-06-22T06:47:29;27.90;61.30
74359;DHT22;62792;46.236;6.040;2023-06-22T06:52:34;27.90;61.20
74359;DHT22;62792;46.236;6.040;2023-06-22T06:57:40;27.80;61.30
74359;DHT22;62792;46.236;6.040;2023-06-22T07:02:44;27.80;61.50
74359;DHT22;62792;46.236;6.040;2023-06-22T07:07:51;27.80;61.50
74359;DHT22;62792;46.236;6.040;2023-06-22T07:12:54;27.80;61.40
74359;DHT22;62792;46.236;6.040;2023-06-22T07:17:58;27.90;61.50
74359;DHT22;62792;46.236;6.040;2023-06-22T07:23:03;27.90;61.80
74359;DHT22;62792;46.236;6.040;2023-06-22T07:28:06;27.90;61.80
74359;DHT22;62792;46.236;6.040;2023-06-22T07:33:09;27.80;61.70
74359;DHT22;62792;46.236;6.040;2023-06-22T07:38:14;27.80;61.80
74359;DHT22;62792;46.236;6.040;2023-06-22T07:43:17;28.00;61.70
74359;DHT22;62792;46.236;6.040;2023-06-22T07:48:21;27.90;61.80
74359;DHT22;62792;46.236;6.040;2023-06-22T07:53:26;27.90;61.70
74359;DHT22;62792;46.236;6.040;2023-06-22T07:58:29;27.90;62.00
74359;DHT22;62792;46.236;6.040;2023-06-22T08:03:32;27.90;61.90
74359;DHT22;62792;46.236;6.040;2023-06-22T08:08:37;28.00;61.80
74359;DHT22;62792;46.236;6.040;2023-06-22T08:13:40;27.90;61.90
74359;DHT22;62792;46.236;6.040;2023-06-22T08:18:43;27.80;61.90
74359;DHT22;62792;46.236;6.040;2023-06-22T08:23:47;27.90;61.80
74359;DHT22;62792;46.236;6.040;2023-06-22T08:28:50;27.90;61.90
74359;DHT22;62792;46.236;6.040;2023-06-22T08:33:54;28.00;61.90
74359;DHT22;62792;46.236;6.040;2023-06-22T08:38:58;27.90;62.10
74359;DHT22;62792;46.236;6.040;2023-06-22T08:44:02;27.90;61.80
74359;DHT22;62792;46.236;6.040;2023-06-22T08:49:06;27.90;62.00
74359;DHT22;62792;46.236;6.040;2023-06-22T08:54:11;28.00;61.90
74359;DHT22;62792;46.236;6.040;2023-06-22T08:59:14;28.00;62.00
74359;DHT22;62792;46.236;6.040;2023-06-22T09:04:16;28.00;61.90
74359;DHT22;62792;46.236;6.040;2023-06-22T09:09:21;28.00;62.10
74359;DHT22;62792;46.236;6.040;2023-06-22T09:14:24;27.90;61.90
74359;DHT22;62792;46.236;6.040;2023-06-22T09:19:27;28.00;62.20
74359;DHT22;62792;46.236;6.040;2023-06-22T09:24:32;27.90;62.10
74359;DHT22;62792;46.236;6.040;2023-06-22T09:29:35;27.90;62.30
74359;DHT22;62792;46.236;6.040;2023-06-22T09:34:38;28.00;62.40
74359;DHT22;62792;46.236;6.040;2023-06-22T09:39:42;28.00;62.40
74359;DHT22;62792;46.236;6.040;2023-06-22T09:44:45;28.00;62.30
74359;DHT22;62792;46.236;6.040;2023-06-22T09:49:48;28.10;62.40
74359;DHT22;62792;46.236;6.040;2023-06-22T09:54:52;28.00;62.40
74359;DHT22;62792;46.236;6.040;2023-06-22T09:59:55;28.00;62.40
74359;DHT22;62792;46.236;6.040;2023-06-22T10:04:59;28.10;62.20
74359;DHT22;62792;46.236;6.040;2023-06-22T10:10:04;28.00;62.50
74359;DHT22;62792;46.236;6.040;2023-06-22T10:15:08;28.00;62.50
74359;DHT22;62792;46.236;6.040;2023-06-22T10:20:12;27.90;62.40
74359;DHT22;62792;46.236;6.040;2023-06-22T10:25:16;28.00;62.50
74359;DHT22;62792;46.236;6.040;2023-06-22T10:30:19;28.00;62.30
74359;DHT22;62792;46.236;6.040;2023-06-22T10:35:22;27.90;62.40
74359;DHT22;62792;46.236;6.040;2023-06-22T10:40:27;28.00;62.40
74359;DHT22;62792;46.236;6.040;2023-06-22T10:45:29;28.00;62.70
74359;DHT22;62792;46.236;6.040;2023-06-22T10:50:33;28.00;62.50
74359;DHT22;62792;46.236;6.040;2023-06-22T10:55:38;28.00;62.60
74359;DHT22;62792;46.236;6.040;2023-06-22T11:00:47;28.00;62.70
74359;DHT22;62792;46.236;6.040;2023-06-22T11:05:50;28.00;62.80
74359;DHT22;62792;46.236;6.040;2023-06-22T11:10:54;28.10;62.80
74359;DHT22;62792;46.236;6.040;2023-06-22T11:15:57;27.90;62.90
74359;DHT22;62792;46.236;6.040;2023-06-22T11:21:00;28.00;62.80
74359;DHT22;62792;46.236;6.040;2023-06-22T11:26:05;28.00;62.90
74359;DHT22;62792;46.236;6.040;2023-06-22T11:31:07;28.00;63.00
74359;DHT22;62792;46.236;6.040;2023-06-22T11:36:26;27.90;62.90
74359;DHT22;62792;46.236;6.040;2023-06-22T11:41:32;28.10;63.10
74359;DHT22;62792;46.236;6.040;2023-06-22T11:46:34;28.10;63.00
74359;DHT22;62792;46.236;6.040;2023-06-22T11:51:37;28.10;63.20
74359;DHT22;62792;46.236;6.040;2023-06-22T11:56:42;28.10;63.30
74359;DHT22;62792;46.236;6.040;2023-06-22T12:01:45;28.10;63.20
74359;DHT22;62792;46.236;6.040;2023-06-22T12:06:48;28.00;63.30
74359;DHT22;62792;46.236;6.040;2023-06-22T12:11:53;28.10;63.30
74359;DHT22;62792;46.236;6.040;2023-06-22T12:16:56;28.00;63.40
74359;DHT22;62792;46.236;6.040;2023-06-22T12:21:59;28.00;63.20
74359;DHT22;62792;46.236;6.040;2023-06-22T12:27:03;28.10;63.10
74359;DHT22;62792;46.236;6.040;2023-06-22T12:32:07;28.10;63.00
74359;DHT22;62792;46.236;6.040;2023-06-22T12:37:10;28.10;63.00
74359;DHT22;62792;46.236;6.040;2023-06-22T12:42:14;28.00;63.30
74359;DHT22;62792;46.236;6.040;2023-06-22T12:47:20;28.10;63.00
74359;DHT22;62792;46.236;6.040;2023-06-22T12:52:23;28.10;62.70
74359;DHT22;62792;46.236;6.040;2023-06-22T12:57:27;28.10;62.80
74359;DHT22;62792;46.236;6.040;2023-06-22T13:02:30;28.20;62.80
74359;DHT22;62792;46.236;6.040;2023-06-22T13:07:33;28.30;62.80
74359;DHT22;62792;46.236;6.040;2023-06-22T13:12:37;28.10;62.70
74359;DHT22;62792;46.236;6.040;2023-06-22T13:17:40;28.20;62.40
74359;DHT22;62792;46.236;6.040;2023-06-22T13:22:43;28.20;62.40
74359;DHT22;62792;46.236;6.040;2023-06-22T13:27:48;28.20;62.50
74359;DHT22;62792;46.236;6.040;2023-06-22T13:32:51;28.30;62.30
74359;DHT22;62792;46.236;6.040;2023-06-22T13:37:54;28.30;62.30
74359;DHT22;62792;46.236;6.040;2023-06-22T13:42:58;28.30;62.00
74359;DHT22;62792;46.236;6.040;2023-06-22T13:48:02;28.40;62.10
74359;DHT22;62792;46.236;6.040;2023-06-22T13:53:05;28.30;62.00
74359;DHT22;62792;46.236;6.040;2023-06-22T13:58:09;28.30;61.70
74359;DHT22;62792;46.236;6.040;2023-06-22T14:03:12;28.30;61.50
74359;DHT22;62792;46.236;6.040;2023-06-22T14:08:17;28.30;61.40
74359;DHT22;62792;46.236;6.040;2023-06-22T14:13:42;28.30;60.90
74359;DHT22;62792;46.236;6.040;2023-06-22T14:18:45;28.30;60.60
74359;DHT22;62792;46.236;6.040;2023-06-22T14:23:48;28.30;60.20
74359;DHT22;62792;46.236;6.040;2023-06-22T14:28:52;28.30;59.80
74359;DHT22;62792;46.236;6.040;2023-06-22T14:33:56;28.30;59.60
74359;DHT22;62792;46.236;6.040;2023-06-22T14:38:59;28.30;58.90
74359;DHT22;62792;46.236;6.040;2023-06-22T14:44:03;28.30;57.90
74359;DHT22;62792;46.236;6.040;2023-06-22T14:49:06;28.30;57.50
74359;DHT22;62792;46.236;6.040;2023-06-22T14:54:09;28.30;57.40
74359;DHT22;62792;46.236;6.040;2023-06-22T14:59:13;28.30;57.40
74359;DHT22;62792;46.236;6.040;2023-06-22T15:04:16;28.30;57.30
74359;DHT22;62792;46.236;6.040;2023-06-22T15:09:19;28.20;57.50
74359;DHT22;62792;46.236;6.040;2023-06-22T15:14:24;28.20;57.70
74359;DHT22;62792;46.236;6.040;2023-06-22T15:19:27;28.20;57.70
74359;DHT22;62792;46.236;6.040;2023-06-22T15:24:29;28.30;57.80
74359;DHT22;62792;46.236;6.040;2023-06-22T15:29:34;28.20;57.90
74359;DHT22;62792;46.236;6.040;2023-06-22T15:34:38;28.20;58.00
74359;DHT22;62792;46.236;6.040;2023-06-22T15:39:41;28.20;58.00
74359;DHT22;62792;46.236;6.040;2023-06-22T15:44:46;28.10;57.80
74359;DHT22;62792;46.236;6.040;2023-06-22T15:49:49;28.10;57.80
74359;DHT22;62792;46.236;6.040;2023-06-22T15:54:52;28.10;57.60
74359;DHT22;62792;46.236;6.040;2023-06-22T15:59:57;28.10;57.40
74359;DHT22;62792;46.236;6.040;2023-06-22T16:05:00;28.10;57.30
74359;DHT22;62792;46.236;6.040;2023-06-22T16:10:05;28.00;57.60
74359;DHT22;62792;46.236;6.040;2023-06-22T16:15:10;28.00;57.30
74359;DHT22;62792;46.236;6.040;2023-06-22T16:20:13;28.10;57.60
74359;DHT22;62792;46.236;6.040;2023-06-22T16:25:18;28.00;57.70
74359;DHT22;62792;46.236;6.040;2023-06-22T16:30:24;28.00;57.70
74359;DHT22;62792;46.236;6.040;2023-06-22T16:35:27;27.90;57.60
74359;DHT22;62792;46.236;6.040;2023-06-22T16:40:35;28.00;57.80
74359;DHT22;62792;46.236;6.040;2023-06-22T16:45:39;28.00;57.80
74359;DHT22;62792;46.236;6.040;2023-06-22T16:50:43;28.00;57.90
74359;DHT22;62792;46.236;6.040;2023-06-22T16:55:46;28.00;58.00
74359;DHT22;62792;46.236;6.040;2023-06-22T17:00:51;28.00;58.10
74359;DHT22;62792;46.236;6.040;2023-06-22T17:05:55;28.00;58.00
74359;DHT22;62792;46.236;6.040;2023-06-22T17:11:02;28.10;58.10
74359;DHT22;62792;46.236;6.040;2023-06-22T17:16:06;27.90;58.10
74359;DHT22;62792;46.236;6.040;2023-06-22T17:21:12;28.00;58.10
74359;DHT22;62792;46.236;6.040;2023-06-22T17:26:15;27.90;58.10
74359;DHT22;62792;46.236;6.040;2023-06-22T17:31:19;28.00;58.10
74359;DHT22;62792;46.236;6.040;2023-06-22T17:36:23;27.90;57.90
74359;DHT22;62792;46.236;6.040;2023-06-22T17:41:31;27.90;58.10
74359;DHT22;62792;46.236;6.040;2023-06-22T17:46:37;28.00;58.10
74359;DHT22;62792;46.236;6.040;2023-06-22T17:51:40;27.90;58.30
74359;DHT22;62792;46.236;6.040;2023-06-22T17:56:47;27.90;58.20
74359;DHT22;62792;46.236;6.040;2023-06-22T18:01:51;28.00;58.10
74359;DHT22;62792;46.236;6.040;2023-06-22T18:06:54;27.90;57.90
74359;DHT22;62792;46.236;6.040;2023-06-22T18:11:58;27.90;58.10
74359;DHT22;62792;46.236;6.040;2023-06-22T18:17:03;27.80;58.10
74359;DHT22;62792;46.236;6.040;2023-06-22T18:22:06;27.80;58.00
74359;DHT22;62792;46.236;6.040;2023-06-22T18:27:09;27.80;57.90
74359;DHT22;62792;46.236;6.040;2023-06-22T18:32:14;27.80;57.90
74359;DHT22;62792;46.236;6.040;2023-06-22T18:37:17;27.90;57.80
74359;DHT22;62792;46.236;6.040;2023-06-22T18:42:20;27.90;58.10
74359;DHT22;62792;46.236;6.040;2023-06-22T18:47:28;27.80;58.00
74359;DHT22;62792;46.236;6.040;2023-06-22T18:52:32;27.80;57.90
74359;DHT22;62792;46.236;6.040;2023-06-22T18:57:36;27.80;58.20
74359;DHT22;62792;46.236;6.040;2023-06-22T19:02:41;27.80;58.00
74359;DHT22;62792;46.236;6.040;2023-06-22T19:07:58;27.80;58.10
74359;DHT22;62792;46.236;6.040;2023-06-22T19:18:51;27.80;58.10
74359;DHT22;62792;46.236;6.040;2023-06-22T19:23:56;27.70;57.90
74359;DHT22;62792;46.236;6.040;2023-06-22T19:28:59;27.80;57.70
74359;DHT22;62792;46.236;6.040;2023-06-22T19:34:04;27.80;57.90
74359;DHT22;62792;46.236;6.040;2023-06-22T19:39:07;27.80;57.80
74359;DHT22;62792;46.236;6.040;2023-06-22T19:44:11;27.80;58.00
74359;DHT22;62792;46.236;6.040;2023-06-22T19:49:16;27.70;57.80
74359;DHT22;62792;46.236;6.040;2023-06-22T19:54:19;27.80;58.00
74359;DHT22;62792;46.236;6.040;2023-06-22T19:59:22;27.70;58.00
74359;DHT22;62792;46.236;6.040;2023-06-22T20:04:27;27.80;58.00
74359;DHT22;62792;46.236;6.040;2023-06-22T20:09:33;27.80;57.80
74359;DHT22;62792;46.236;6.040;2023-06-22T20:14:41;27.70;57.90
74359;DHT22;62792;46.236;6.040;2023-06-22T20:19:52;27.70;57.90
74359;DHT22;62792;46.236;6.040;2023-06-22T20:24:55;27.70;57.70
74359;DHT22;62792;46.236;6.040;2023-06-22T20:30:10;27.70;57.90
74359;DHT22;62792;46.236;6.040;2023-06-22T20:35:16;27.70;57.80
74359;DHT22;62792;46.236;6.040;2023-06-22T20:40:21;27.70;58.00
74359;DHT22;62792;46.236;6.040;2023-06-22T20:45:29;27.70;57.80
74359;DHT22;62792;46.236;6.040;2023-06-22T20:50:36;27.70;58.00
74359;DHT22;62792;46.236;6.040;2023-06-22T20:55:40;27.70;57.90
74359;DHT22;62792;46.236;6.040;2023-06-22T21:00:43;27.80;57.90
74359;DHT22;62792;46.236;6.040;2023-06-22T21:05:47;27.70;57.80
74359;DHT22;62792;46.236;6.040;2023-06-22T21:10:50;27.70;58.10
74359;DHT22;62792;46.236;6.040;2023-06-22T21:15:55;27.60;58.00
74359;DHT22;62792;46.236;6.040;2023-06-22T21:20:59;27.70;57.90
74359;DHT22;62792;46.236;6.040;2023-06-22T21:26:02;27.60;57.80
74359;DHT22;62792;46.236;6.040;2023-06-22T21:31:05;27.60;58.30
74359;DHT22;62792;46.236;6.040;2023-06-22T21:36:10;27.70;57.90
74359;DHT22;62792;46.236;6.040;2023-06-22T21:41:13;27.70;58.00
74359;DHT22;62792;46.236;6.040;2023-06-22T21:46:16;27.60;58.20
74359;DHT22;62792;46.236;6.040;2023-06-22T21:51:20;27.60;58.00
74359;DHT22;62792;46.236;6.040;2023-06-22T21:56:23;27.60;58.00
74359;DHT22;62792;46.236;6.040;2023-06-22T22:01:27;27.70;58.10
74359;DHT22;62792;46.236;6.040;2023-06-22T22:06:32;27.70;58.30
74359;DHT22;62792;46.236;6.040;2023-06-22T22:11:35;27.60;58.20
74359;DHT22;62792;46.236;6.040;2023-06-22T22:16:38;27.60;58.10
74359;DHT22;62792;46.236;6.040;2023-06-22T22:21:42;27.70;58.40
74359;DHT22;62792;46.236;6.040;2023-06-22T22:26:45;27.60;58.30
74359;DHT22;62792;46.236;6.040;2023-06-22T22:31:49;27.60;58.20
74359;DHT22;62792;46.236;6.040;2023-06-22T22:36:53;27.50;58.20
74359;DHT22;62792;46.236;6.040;2023-06-22T22:42:00;27.60;58.10
74359;DHT22;62792;46.236;6.040;2023-06-22T22:47:03;27.60;58.40
74359;DHT22;62792;46.236;6.040;2023-06-22T22:52:07;27.60;58.30
74359;DHT22;62792;46.236;6.040;2023-06-22T22:57:11;27.60;58.10
74359;DHT22;62792;46.236;6.040;2023-06-22T23:02:13;27.60;58.30
74359;DHT22;62792;46.236;6.040;2023-06-22T23:07:18;27.60;58.30
74359;DHT22;62792;46.236;6.040;2023-06-22T23:12:21;27.60;58.30
74359;DHT22;62792;46.236;6.040;2023-06-22T23:17:24;27.60;58.20
74359;DHT22;62792;46.236;6.040;2023-06-22T23:22:29;27.50;58.30
74359;DHT22;62792;46.236;6.040;2023-06-22T23:27:32;27.50;58.40
74359;DHT22;62792;46.236;6.040;2023-06-22T23:32:35;27.50;58.20
74359;DHT22;62792;46.236;6.040;2023-06-22T23:37:40;27.50;58.40
74359;DHT22;62792;46.236;6.040;2023-06-22T23:42:44;27.50;58.30
74359;DHT22;62792;46.236;6.040;2023-06-22T23:47:49;27.40;58.30
74359;DHT22;62792;46.236;6.040;2023-06-22T23:52:53;27.50;58.30
74359;DHT22;62792;46.236;6.040;2023-06-22T23:57:56;27.50;57.90
